createdAt,value
2022-11-24T00:01:17.850Z,5.72
2022-11-24T00:03:47.653Z,5.35
2022-11-24T00:06:17.709Z,5.33
2022-11-24T00:08:47.508Z,5.12
2022-11-24T00:11:17.678Z,5.17
2022-11-24T00:13:46.312Z,5.36
2022-11-24T00:16:17.874Z,5.52
2022-11-24T00:18:48.371Z,5.55
2022-11-24T00:21:17.717Z,5.76
2022-11-24T00:23:46.167Z,6.00
2022-11-24T00:26:15.877Z,5.87
2022-11-24T00:28:46.209Z,6.08
2022-11-24T00:31:21.302Z,6.10
2022-11-24T00:33:51.104Z,6.36
2022-11-24T00:36:20.908Z,6.07
2022-11-24T00:38:49.236Z,6.21
2022-11-24T00:41:17.175Z,5.97
2022-11-24T00:43:45.188Z,6.21
2022-11-24T00:46:13.273Z,6.20
2022-11-24T00:48:42.834Z,6.50
2022-11-24T00:51:13.368Z,5.99
2022-11-24T00:53:41.916Z,6.47
2022-11-24T00:56:10.366Z,6.35
2022-11-24T00:58:39.095Z,6.43
2022-11-24T01:01:09.202Z,6.42
2022-11-24T01:03:37.809Z,6.22
2022-11-24T01:06:09.205Z,5.80
2022-11-24T01:08:39.021Z,5.35
2022-11-24T01:11:13.094Z,5.27
2022-11-24T01:13:43.020Z,5.40
2022-11-24T01:16:17.356Z,5.92
2022-11-24T01:18:46.102Z,6.12
2022-11-24T01:21:15.609Z,6.01
2022-11-24T01:23:44.137Z,5.80
2022-11-24T01:26:14.945Z,6.04
2022-11-24T01:28:47.118Z,5.36
2022-11-24T01:31:16.628Z,5.51
2022-11-24T01:33:44.720Z,5.58
2022-11-24T01:36:13.378Z,5.65
2022-11-24T01:38:42.997Z,5.30
2022-11-24T01:41:13.739Z,5.44
2022-11-24T01:43:42.505Z,5.98
2022-11-24T01:46:20.666Z,5.87
2022-11-24T01:48:53.897Z,6.10
2022-11-24T01:51:26.049Z,5.86
2022-11-24T01:54:00.156Z,5.50
2022-11-24T01:56:29.634Z,5.62
2022-11-24T01:59:00.186Z,5.63
2022-11-24T02:01:31.520Z,5.56
2022-11-24T02:04:01.641Z,5.21
2022-11-24T02:06:32.662Z,5.15
2022-11-24T02:09:08.104Z,5.04
2022-11-24T02:11:38.931Z,4.98
2022-11-24T02:14:10.993Z,5.02
2022-11-24T02:16:40.758Z,5.16
2022-11-24T02:19:17.763Z,5.06
2022-11-24T02:21:45.850Z,4.98
2022-11-24T02:24:24.568Z,5.00
2022-11-24T02:26:54.161Z,5.06
2022-11-24T02:29:23.031Z,5.29
2022-11-24T02:31:55.974Z,5.26
2022-11-24T02:34:24.004Z,5.63
2022-11-24T02:36:51.986Z,5.44
2022-11-24T02:39:20.410Z,5.62
2022-11-24T02:41:53.228Z,5.29
2022-11-24T02:44:28.105Z,5.33
2022-11-24T02:47:03.608Z,5.06
2022-11-24T02:49:31.787Z,5.03
2022-11-24T02:52:00.053Z,5.23
2022-11-24T02:54:28.197Z,4.67
2022-11-24T02:56:56.402Z,4.85
2022-11-24T02:59:26.161Z,4.57
2022-11-24T03:01:54.408Z,4.63
2022-11-24T03:04:22.890Z,4.42
2022-11-24T03:06:51.145Z,4.49
2022-11-24T03:09:19.352Z,4.17
2022-11-24T03:11:47.632Z,4.13
2022-11-24T03:14:15.711Z,4.03
2022-11-24T03:16:45.577Z,3.95
2022-11-24T03:19:13.772Z,4.14
2022-11-24T03:21:41.764Z,4.36
2022-11-24T03:24:09.917Z,4.41
2022-11-24T03:26:38.047Z,4.58
2022-11-24T03:29:06.288Z,4.54
2022-11-24T03:31:34.524Z,4.56
2022-11-24T03:34:04.233Z,4.83
2022-11-24T03:36:32.203Z,4.53
2022-11-24T03:39:00.334Z,4.65
2022-11-24T03:41:28.683Z,4.51
2022-11-24T03:43:56.773Z,4.59
2022-11-24T03:46:24.917Z,4.43
2022-11-24T03:48:53.178Z,4.51
2022-11-24T03:51:22.827Z,4.14
2022-11-24T03:53:51.309Z,4.50
2022-11-24T03:56:19.368Z,4.54
2022-11-24T03:58:47.559Z,4.58
2022-11-24T04:01:15.715Z,4.38
2022-11-24T04:03:43.988Z,4.47
2022-11-24T04:06:12.450Z,4.48
2022-11-24T04:08:42.081Z,4.42
2022-11-24T04:11:30.198Z,4.22
2022-11-24T04:13:57.306Z,3.77
2022-11-24T04:16:25.747Z,3.74
2022-11-24T04:18:54.397Z,3.59
2022-11-24T04:21:22.594Z,3.89
2022-11-24T04:23:52.134Z,4.18
2022-11-24T04:26:20.374Z,4.24
2022-11-24T04:28:48.671Z,4.09
2022-11-24T04:31:16.965Z,3.85
2022-11-24T04:33:45.418Z,3.96
2022-11-24T04:36:13.453Z,4.25
2022-11-24T04:39:20.096Z,4.28
2022-11-24T04:41:31.441Z,4.24
2022-11-24T04:43:59.477Z,4.17
2022-11-24T04:46:27.696Z,4.01
2022-11-24T04:48:55.800Z,4.17
2022-11-24T04:51:23.887Z,4.30
2022-11-24T04:53:52.298Z,4.28
2022-11-24T04:56:20.414Z,4.23
2022-11-24T04:58:50.742Z,4.07
2022-11-24T05:01:18.966Z,3.97
2022-11-24T05:03:47.139Z,3.98
2022-11-24T05:06:15.601Z,3.81
2022-11-24T05:08:43.665Z,3.63
2022-11-24T05:11:11.798Z,3.58
2022-11-24T05:13:40.264Z,3.40
2022-11-24T05:16:10.348Z,3.65
2022-11-24T05:18:38.965Z,3.81
2022-11-24T05:21:07.617Z,3.84
2022-11-24T05:23:35.644Z,3.74
2022-11-24T05:26:04.703Z,3.81
2022-11-24T05:28:33.417Z,3.60
2022-11-24T05:31:02.075Z,3.68
2022-11-24T05:33:33.520Z,3.79
2022-11-24T05:36:02.748Z,3.90
2022-11-24T05:38:31.246Z,3.78
2022-11-24T05:41:02.393Z,3.76
2022-11-24T05:43:30.542Z,3.87
2022-11-24T05:46:01.358Z,3.83
2022-11-24T05:48:30.986Z,3.79
2022-11-24T05:50:59.710Z,3.76
2022-11-24T05:53:27.826Z,3.67
2022-11-24T05:55:55.877Z,4.01
2022-11-24T05:58:24.142Z,3.80
2022-11-24T06:00:52.251Z,3.76
2022-11-24T06:03:20.470Z,3.62
2022-11-24T06:05:49.929Z,3.35
2022-11-24T06:08:18.250Z,3.39
2022-11-24T06:10:46.554Z,3.62
2022-11-24T06:13:14.692Z,3.68
2022-11-24T06:15:43.042Z,3.55
2022-11-24T06:18:11.299Z,3.39
2022-11-24T06:20:39.531Z,3.49
2022-11-24T06:23:09.331Z,3.47
2022-11-24T06:25:37.585Z,3.54
2022-11-24T06:28:07.044Z,3.51
2022-11-24T06:30:35.065Z,3.45
2022-11-24T06:33:03.259Z,3.48
2022-11-24T06:35:31.499Z,3.43
2022-11-24T06:37:59.604Z,3.49
2022-11-24T06:40:28.981Z,3.72
2022-11-24T06:42:57.239Z,3.85
2022-11-24T06:45:25.375Z,3.76
2022-11-24T06:47:54.880Z,3.70
2022-11-24T06:50:23.015Z,3.50
2022-11-24T06:52:51.121Z,3.50
2022-11-24T06:55:19.183Z,3.49
2022-11-24T06:57:48.956Z,3.64
2022-11-24T07:00:18.554Z,3.96
2022-11-24T07:02:46.637Z,3.96
2022-11-24T07:05:14.927Z,4.31
2022-11-24T07:07:43.021Z,4.39
2022-11-24T07:10:11.296Z,4.46
2022-11-24T07:12:39.642Z,4.46
2022-11-24T07:15:11.181Z,4.74
2022-11-24T07:17:40.544Z,6.17
2022-11-24T07:20:10.110Z,8.66
2022-11-24T07:22:38.179Z,10.08
2022-11-24T07:25:09.740Z,11.71
2022-11-24T07:27:38.239Z,12.80
2022-11-24T07:30:07.321Z,13.15
2022-11-24T07:32:36.854Z,12.36
2022-11-24T07:35:05.757Z,11.69
2022-11-24T07:37:34.259Z,10.79
2022-11-24T07:40:02.246Z,9.76
2022-11-24T07:42:30.331Z,9.19
2022-11-24T07:44:58.331Z,10.78
2022-11-24T07:47:26.397Z,12.41
2022-11-24T07:49:55.946Z,14.17
2022-11-24T07:52:26.724Z,15.58
2022-11-24T07:54:54.830Z,16.91
2022-11-24T07:57:23.537Z,15.71
2022-11-24T07:59:51.501Z,11.66
2022-11-24T10:15:36.059Z,7.19
2022-11-24T10:18:21.244Z,7.15
2022-11-24T10:21:08.796Z,7.14
2022-11-24T10:23:59.176Z,6.92
2022-11-24T10:26:36.043Z,7.00
2022-11-24T10:29:16.839Z,6.73
2022-11-24T10:31:48.565Z,6.85
2022-11-24T10:34:19.630Z,6.76
2022-11-24T10:36:53.103Z,7.50
2022-11-24T10:39:29.076Z,7.49
2022-11-24T10:42:04.294Z,7.19
2022-11-24T10:44:32.644Z,7.63
2022-11-24T10:47:02.606Z,7.27
2022-11-24T10:49:33.841Z,7.08
2022-11-24T10:52:07.767Z,7.15
2022-11-24T10:54:37.071Z,7.29
2022-11-24T10:57:05.440Z,7.19
2022-11-24T10:59:37.565Z,7.27
2022-11-24T11:02:41.712Z,7.32
2022-11-24T11:05:42.203Z,7.31
2022-11-24T11:08:31.819Z,7.69
2022-11-24T11:11:15.888Z,7.94
2022-11-24T11:14:00.068Z,8.13
2022-11-24T11:16:36.670Z,7.97
2022-11-24T11:19:26.046Z,8.16
2022-11-24T11:22:04.451Z,8.03
2022-11-24T11:24:32.935Z,8.17
2022-11-24T11:27:02.768Z,8.30
2022-11-24T11:35:13.659Z,8.07
2022-11-24T11:37:45.400Z,8.58
2022-11-24T11:40:18.726Z,8.45
2022-11-24T11:43:02.293Z,8.66
2022-11-24T11:45:36.541Z,8.23
2022-11-24T11:48:27.973Z,8.08
2022-11-24T11:54:03.745Z,7.72
2022-11-24T11:56:36.412Z,7.69
2022-11-24T11:59:30.210Z,7.51
2022-11-24T12:02:20.937Z,7.05
2022-11-24T12:04:54.199Z,7.01
2022-11-24T12:07:38.866Z,7.31
2022-11-24T12:10:21.981Z,7.17
2022-11-24T12:13:05.226Z,6.91
2022-11-24T12:15:39.144Z,7.32
2022-11-24T12:18:48.439Z,7.32
2022-11-24T12:21:22.882Z,7.31
2022-11-24T12:24:05.855Z,7.61
2022-11-24T12:26:46.764Z,7.63
2022-11-24T12:29:34.753Z,7.77
2022-11-24T12:32:12.593Z,7.76
2022-11-24T12:34:51.434Z,7.86
2022-11-24T12:37:37.404Z,7.95
2022-11-24T12:40:14.684Z,8.12
2022-11-24T12:42:51.711Z,7.99
2022-11-24T12:45:35.409Z,7.86
2022-11-24T12:48:20.219Z,7.92
2022-11-24T12:50:49.506Z,7.76
2022-11-24T12:53:23.312Z,7.38
2022-11-24T12:55:51.965Z,7.34
2022-11-24T12:58:27.691Z,7.35
2022-11-24T13:01:13.110Z,7.42
2022-11-24T13:04:00.952Z,7.33
2022-11-24T13:06:38.418Z,7.42
2022-11-24T13:09:10.277Z,7.24
2022-11-24T13:11:41.380Z,7.12
2022-11-24T13:14:17.592Z,7.31
2022-11-24T13:19:45.867Z,7.13
2022-11-24T13:22:24.026Z,7.00
2022-11-24T13:25:14.551Z,7.11
2022-11-24T13:27:45.722Z,7.03
2022-11-24T13:30:52.028Z,7.13
2022-11-24T13:33:42.985Z,6.88
2022-11-24T13:36:33.487Z,7.06
2022-11-24T13:39:03.666Z,7.43
2022-11-24T13:42:42.107Z,7.50
2022-11-24T13:45:00.314Z,7.44
2022-11-24T13:47:34.883Z,7.51
2022-11-24T13:50:07.372Z,7.65
2022-11-24T13:52:50.325Z,7.51
2022-11-24T13:55:26.071Z,7.19
2022-11-24T13:57:57.733Z,7.34
2022-11-24T14:00:28.673Z,7.30
2022-11-24T14:03:04.565Z,7.13
2022-11-24T14:05:41.084Z,7.27
2022-11-24T14:08:20.521Z,7.21
2022-11-24T14:10:48.674Z,7.51
2022-11-24T14:13:27.860Z,7.49
2022-11-24T14:16:04.259Z,7.82
2022-11-24T14:18:34.893Z,7.81
2022-11-24T14:21:23.341Z,7.94
2022-11-24T14:23:54.418Z,7.88
2022-11-24T14:26:25.011Z,8.17
2022-11-24T14:28:55.351Z,8.45
2022-11-24T14:31:25.685Z,8.57
2022-11-24T14:34:14.106Z,8.37
2022-11-24T14:36:44.066Z,8.45
2022-11-24T14:39:14.211Z,8.31
2022-11-24T14:41:45.165Z,8.19
2022-11-24T14:44:18.587Z,8.27
2022-11-24T14:46:47.282Z,8.31
2022-11-24T14:49:23.664Z,8.34
2022-11-24T14:51:58.068Z,8.31
2022-11-24T14:54:26.525Z,8.33
2022-11-24T14:57:01.471Z,8.51
2022-11-24T14:59:31.280Z,8.55
2022-11-24T15:02:00.637Z,8.61
2022-11-24T15:05:02.194Z,8.68
2022-11-24T15:07:26.763Z,8.64
2022-11-24T15:09:58.053Z,8.67
2022-11-24T15:12:31.098Z,8.72
2022-11-24T15:15:01.788Z,8.65
2022-11-24T15:17:31.334Z,8.65
2022-11-24T15:20:03.423Z,8.61
2022-11-24T15:22:39.946Z,8.64
2022-11-24T15:25:40.755Z,8.51
2022-11-24T15:28:09.740Z,8.60
2022-11-24T15:30:38.778Z,8.48
2022-11-24T15:33:15.590Z,8.49
2022-11-24T15:35:44.304Z,8.55
2022-11-24T15:38:14.433Z,8.38
2022-11-24T15:40:45.499Z,8.36
2022-11-24T15:43:20.292Z,8.12
2022-11-24T15:45:48.556Z,8.02
2022-11-24T15:48:18.389Z,8.04
2022-11-24T15:50:47.165Z,8.08
2022-11-24T15:53:20.856Z,7.88
2022-11-24T15:55:49.264Z,8.04
2022-11-24T15:58:17.721Z,7.71
2022-11-24T16:00:46.259Z,7.48
2022-11-24T16:03:45.566Z,7.41
2022-11-24T16:06:06.707Z,7.54
2022-11-24T16:08:36.067Z,7.55
2022-11-24T16:11:04.101Z,7.36
2022-11-24T16:13:32.423Z,7.24
2022-11-24T16:16:00.601Z,7.33
2022-11-24T16:18:28.722Z,7.42
2022-11-24T16:20:56.771Z,7.45
2022-11-24T16:23:25.202Z,7.87
2022-11-24T16:25:54.964Z,7.53
2022-11-24T16:28:22.927Z,7.61
2022-11-24T16:30:51.717Z,7.76
2022-11-24T16:33:19.686Z,7.67
2022-11-24T16:35:48.407Z,7.73
2022-11-24T16:38:17.374Z,8.01
2022-11-24T16:40:46.058Z,8.23
2022-11-24T16:43:15.450Z,8.13
2022-11-24T16:45:45.545Z,8.27
2022-11-24T16:48:13.686Z,8.26
2022-11-24T16:50:42.058Z,8.34
2022-11-24T16:53:10.175Z,8.37
2022-11-24T16:55:38.265Z,8.50
2022-11-24T16:58:06.529Z,8.46
2022-11-24T17:00:35.977Z,8.48
2022-11-24T17:03:04.174Z,8.39
2022-11-24T17:05:32.237Z,8.36
2022-11-24T17:08:00.314Z,8.24
2022-11-24T17:10:28.372Z,7.94
2022-11-24T17:12:56.340Z,8.20
2022-11-24T17:15:33.711Z,8.49
2022-11-24T17:20:53.579Z,8.26
2022-11-24T17:23:21.616Z,8.16
2022-11-24T17:25:49.992Z,8.22
2022-11-24T17:28:18.369Z,8.24
2022-11-24T17:30:46.595Z,8.37
2022-11-24T17:33:15.920Z,8.31
2022-11-24T17:35:43.953Z,8.34
2022-11-24T17:38:12.222Z,8.16
2022-11-24T17:40:40.334Z,8.12
2022-11-24T17:43:08.356Z,8.32
2022-11-24T17:45:36.547Z,8.47
2022-11-24T17:48:05.352Z,8.47
2022-11-24T17:50:35.047Z,8.50
2022-11-24T17:53:03.070Z,8.55
2022-11-24T17:55:31.185Z,8.56
2022-11-24T17:57:59.272Z,8.27
2022-11-24T18:00:27.420Z,8.23
2022-11-24T18:02:56.815Z,8.37
2022-11-24T18:05:25.335Z,8.39
2022-11-24T18:07:55.127Z,8.27
2022-11-24T18:10:23.596Z,8.34
2022-11-24T18:12:51.622Z,8.42
2022-11-24T18:15:19.755Z,8.28
2022-11-24T18:17:47.820Z,8.27
2022-11-24T18:20:16.077Z,8.34
2022-11-24T18:23:05.607Z,8.36
2022-11-24T18:25:37.155Z,8.43
2022-11-24T18:28:05.746Z,8.38
2022-11-24T18:30:33.833Z,8.55
2022-11-24T18:33:01.931Z,8.63
2022-11-24T18:35:29.954Z,8.47
2022-11-24T18:37:58.482Z,8.57
2022-11-24T18:40:26.655Z,8.57
2022-11-24T18:42:56.205Z,8.66
2022-11-24T18:45:25.168Z,8.69
2022-11-24T18:47:53.298Z,8.57
2022-11-24T18:50:22.011Z,8.51
2022-11-24T18:52:50.218Z,8.40
2022-11-24T18:55:18.487Z,8.51
2022-11-24T18:57:46.563Z,8.65
2022-11-24T19:00:18.408Z,8.51
2022-11-24T19:02:51.300Z,8.54
2022-11-24T19:05:20.779Z,8.58
2022-11-24T19:07:48.800Z,8.62
2022-11-24T19:10:17.227Z,8.65
2022-11-24T19:12:45.706Z,8.51
2022-11-24T19:15:14.280Z,8.18
2022-11-24T19:17:47.418Z,8.31
2022-11-24T19:20:15.798Z,8.50
2022-11-24T19:22:44.907Z,8.54
2022-11-24T19:25:12.964Z,8.59
2022-11-24T19:27:41.167Z,8.65
2022-11-24T19:30:10.536Z,8.62
2022-11-24T19:32:38.699Z,8.61
2022-11-24T19:35:09.019Z,8.53
2022-11-24T19:37:37.180Z,8.36
2022-11-24T19:40:06.131Z,8.05
2022-11-24T19:42:34.224Z,8.02
2022-11-24T19:45:02.155Z,7.98
2022-11-24T19:47:30.493Z,8.29
2022-11-24T19:49:58.700Z,8.36
2022-11-24T19:52:28.485Z,7.96
2022-11-24T19:54:56.600Z,8.21
2022-11-24T19:57:24.769Z,8.03
2022-11-24T19:59:53.035Z,8.20
2022-11-24T20:02:21.267Z,8.31
2022-11-24T20:04:49.542Z,8.39
2022-11-24T20:07:19.092Z,8.51
2022-11-24T20:09:48.684Z,8.56
2022-11-24T20:12:16.911Z,8.36
2022-11-24T20:14:44.911Z,8.37
2022-11-24T20:17:14.096Z,8.30
2022-11-24T20:19:42.159Z,8.49
2022-11-24T20:22:10.345Z,8.45
2022-11-24T20:24:38.536Z,8.40
2022-11-24T20:27:08.041Z,8.31
2022-11-24T20:29:36.141Z,8.47
2022-11-24T20:32:04.483Z,8.45
2022-11-24T20:34:33.069Z,8.47
2022-11-24T20:37:01.515Z,8.22
2022-11-24T20:39:29.730Z,8.01
2022-11-24T20:41:58.002Z,8.28
2022-11-24T20:44:28.115Z,8.28
2022-11-24T20:46:58.153Z,8.33
2022-11-24T20:49:27.298Z,8.34
2022-11-24T20:51:57.192Z,8.33
2022-11-24T20:54:25.510Z,7.96
2022-11-24T20:56:53.859Z,8.08
2022-11-24T20:59:24.490Z,8.09
2022-11-24T21:01:56.129Z,7.97
2022-11-24T21:04:26.476Z,8.19
2022-11-24T21:06:54.754Z,8.08
2022-11-24T21:09:22.926Z,8.20
2022-11-24T21:11:50.930Z,7.95
2022-11-24T21:14:19.434Z,7.97
2022-11-24T21:16:47.553Z,7.59
2022-11-24T21:19:18.678Z,7.59
2022-11-24T21:21:47.779Z,7.64
2022-11-24T21:24:17.385Z,7.44
2022-11-24T21:26:47.887Z,7.48
2022-11-24T21:29:20.265Z,7.92
2022-11-24T21:31:48.663Z,7.96
2022-11-24T21:34:19.454Z,8.03
2022-11-24T21:36:48.023Z,8.27
2022-11-24T21:39:16.829Z,8.13
2022-11-24T21:41:45.317Z,7.97
2022-11-24T21:44:14.465Z,7.70
2022-11-24T21:46:48.292Z,7.69
2022-11-24T21:49:22.159Z,7.83
2022-11-24T21:51:55.268Z,7.87
2022-11-24T21:54:23.701Z,7.60
2022-11-24T21:56:51.663Z,7.54
2022-11-24T21:59:21.295Z,7.45
2022-11-24T22:01:49.371Z,7.87
2022-11-24T22:04:17.753Z,7.82
2022-11-24T22:06:47.279Z,8.12
2022-11-24T22:09:18.228Z,7.82
2022-11-24T22:11:49.269Z,8.01
2022-11-24T22:14:17.581Z,7.89
2022-11-24T22:16:46.163Z,7.56
2022-11-24T22:19:14.418Z,7.58
2022-11-24T22:21:42.795Z,7.45
2022-11-24T22:24:12.658Z,7.89
2022-11-24T22:26:40.636Z,7.75
2022-11-24T22:29:09.044Z,7.89
2022-11-24T22:31:37.117Z,7.83
2022-11-24T22:34:06.391Z,8.10
2022-11-24T22:36:36.638Z,7.95
2022-11-24T22:39:06.594Z,8.12
2022-11-24T22:41:37.032Z,8.26
2022-11-24T22:44:05.962Z,8.09
2022-11-24T22:46:34.011Z,7.79
2022-11-24T22:49:02.892Z,7.88
2022-11-24T22:51:33.030Z,8.18
2022-11-24T22:54:03.040Z,8.20
2022-11-24T22:56:32.613Z,8.28
2022-11-24T22:59:04.647Z,8.02
2022-11-24T23:01:34.264Z,8.02
2022-11-24T23:04:03.885Z,7.84
2022-11-24T23:06:33.510Z,7.76
2022-11-24T23:09:03.276Z,7.59
2022-11-24T23:11:37.744Z,7.39
2022-11-24T23:14:12.118Z,7.63
2022-11-24T23:16:40.588Z,7.53
2022-11-24T23:19:08.875Z,7.49
2022-11-24T23:21:39.355Z,7.59
2022-11-24T23:24:09.013Z,7.47
2022-11-24T23:26:39.326Z,7.55
2022-11-24T23:29:11.179Z,7.70
2022-11-24T23:31:40.696Z,7.64
2022-11-24T23:34:09.054Z,7.57
2022-11-24T23:36:37.119Z,7.63
2022-11-24T23:39:06.494Z,7.62
2022-11-24T23:41:34.805Z,7.67
2022-11-24T23:44:02.926Z,7.62
2022-11-24T23:46:32.586Z,7.81
2022-11-24T23:49:00.958Z,8.05
2022-11-24T23:51:30.785Z,8.17
2022-11-24T23:53:59.952Z,8.39
2022-11-24T23:56:32.345Z,8.34
2022-11-24T23:59:00.606Z,8.33
